createdAt,value
2018-05-09T00:00:16.890Z,65.8
2018-05-09T00:01:16.903Z,65.8
2018-05-09T00:02:17.190Z,65.8
2018-05-09T00:03:16.459Z,65.9
2018-05-09T00:04:16.720Z,66.0
2018-05-09T00:05:17.007Z,66.2
2018-05-09T00:06:17.323Z,66.2
2018-05-09T00:07:16.604Z,66.5
2018-05-09T00:08:16.892Z,66.2
2018-05-09T00:09:17.168Z,65.8
2018-05-09T00:10:16.441Z,65.9
2018-05-09T00:11:16.494Z,66.0
2018-05-09T00:12:16.757Z,66.1
2018-05-09T00:13:17.035Z,66.3
2018-05-09T00:14:17.313Z,66.3
2018-05-09T00:15:16.594Z,66.5
2018-05-09T00:16:16.874Z,66.5
2018-05-09T00:17:17.199Z,66.5
2018-05-09T00:18:16.483Z,66.9
2018-05-09T00:19:16.762Z,67.5
2018-05-09T00:20:17.047Z,67.8
2018-05-09T00:21:17.096Z,67.9
2018-05-09T00:22:16.379Z,68.0
2018-05-09T00:23:16.672Z,68.0
2018-05-09T00:24:16.951Z,68.0
2018-05-09T00:25:17.229Z,68.3
2018-05-09T00:26:16.508Z,68.1
2018-05-09T00:27:16.791Z,68.5
2018-05-09T00:28:17.085Z,68.5
2018-05-09T00:29:16.371Z,68.7
2018-05-09T00:30:16.667Z,68.9
2018-05-09T00:31:16.699Z,69.0
2018-05-09T00:32:16.975Z,69.0
2018-05-09T00:33:17.262Z,69.0
2018-05-09T00:34:16.833Z,68.8
2018-05-09T00:35:17.121Z,69.2
2018-05-09T00:36:16.408Z,69.2
2018-05-09T00:37:16.688Z,69.0
2018-05-09T00:38:16.963Z,69.2
2018-05-09T00:39:17.246Z,69.2
2018-05-09T00:40:16.534Z,69.5
2018-05-09T00:41:16.573Z,69.3
2018-05-09T00:42:16.855Z,69.2
2018-05-09T00:43:17.129Z,69.5
2018-05-09T00:44:16.413Z,69.5
2018-05-09T00:45:16.702Z,69.5
2018-05-09T00:46:16.990Z,69.7
2018-05-09T00:47:17.296Z,69.5
2018-05-09T00:48:16.577Z,69.7
2018-05-09T00:49:16.849Z,69.8
2018-05-09T00:50:17.145Z,69.5
2018-05-09T00:51:17.167Z,69.6
2018-05-09T00:52:16.446Z,69.6
2018-05-09T00:53:16.749Z,69.6
2018-05-09T00:54:17.038Z,69.7
2018-05-09T00:55:17.325Z,69.6
2018-05-09T00:56:16.602Z,69.7
2018-05-09T00:57:16.878Z,69.8
2018-05-09T00:58:17.153Z,69.9
2018-05-09T00:59:16.446Z,69.8
2018-05-09T01:00:16.729Z,69.6
2018-05-09T01:01:16.760Z,70.0
2018-05-09T01:02:17.024Z,70.2
2018-05-09T01:03:17.289Z,70.3
2018-05-09T01:04:16.586Z,70.6
2018-05-09T01:05:16.871Z,70.2
2018-05-09T01:06:17.149Z,70.5
2018-05-09T01:07:16.434Z,70.8
2018-05-09T01:08:16.723Z,70.9
2018-05-09T01:09:16.999Z,70.8
2018-05-09T01:10:17.264Z,70.8
2018-05-09T01:11:16.328Z,70.8
2018-05-09T01:12:16.605Z,69.8
2018-05-09T01:13:16.884Z,69.9
2018-05-09T01:14:17.167Z,70.2
2018-05-09T01:15:16.452Z,70.5
2018-05-09T01:16:16.737Z,70.5
2018-05-09T01:17:17.015Z,70.4
2018-05-09T01:18:17.306Z,70.3
2018-05-09T01:19:16.591Z,70.6
2018-05-09T01:20:16.898Z,70.9
2018-05-09T01:21:16.930Z,70.5
2018-05-09T01:22:17.231Z,70.5
2018-05-09T01:23:16.508Z,70.5
2018-05-09T01:24:16.789Z,71.1
2018-05-09T01:25:17.074Z,71.3
2018-05-09T01:26:16.392Z,71.5
2018-05-09T01:27:16.765Z,72.0
2018-05-09T01:28:17.043Z,72.0
2018-05-09T01:29:17.323Z,72.0
2018-05-09T01:30:16.620Z,72.0
2018-05-09T01:31:16.663Z,72.4
2018-05-09T01:32:16.942Z,72.4
2018-05-09T01:33:17.217Z,72.7
2018-05-09T01:34:16.505Z,72.7
2018-05-09T01:35:16.788Z,72.9
2018-05-09T01:36:17.072Z,72.5
2018-05-09T01:37:16.366Z,72.5
2018-05-09T01:38:16.651Z,72.8
2018-05-09T01:39:16.920Z,72.9
2018-05-09T01:40:17.206Z,73.0
2018-05-09T01:41:17.251Z,73.3
2018-05-09T01:42:16.521Z,73.2
2018-05-09T01:43:16.814Z,73.3
2018-05-09T01:44:17.086Z,73.5
2018-05-09T01:45:16.361Z,73.3
2018-05-09T01:46:16.647Z,72.7
2018-05-09T01:47:16.929Z,73.0
2018-05-09T01:48:17.229Z,73.2
2018-05-09T01:49:16.517Z,72.8
2018-05-09T01:50:16.807Z,72.5
2018-05-09T01:51:16.855Z,72.3
2018-05-09T01:52:17.144Z,72.7
2018-05-09T01:53:16.424Z,72.3
2018-05-09T01:54:16.701Z,72.0
2018-05-09T01:55:16.981Z,71.4
2018-05-09T01:56:17.265Z,71.2
2018-05-09T01:57:16.555Z,71.1
2018-05-09T01:58:16.847Z,71.1
2018-05-09T01:59:17.135Z,71.3
2018-05-09T02:00:16.426Z,71.2
2018-05-09T02:01:16.467Z,71.2
2018-05-09T02:02:16.748Z,70.8
2018-05-09T02:03:17.036Z,71.3
2018-05-09T02:04:17.325Z,71.7
2018-05-09T02:05:16.609Z,71.9
2018-05-09T02:06:16.884Z,72.1
2018-05-09T02:07:17.164Z,72.4
2018-05-09T02:08:17.145Z,72.6
2018-05-09T02:09:16.427Z,72.5
2018-05-09T02:10:16.729Z,72.3
2018-05-09T02:11:16.750Z,72.3
2018-05-09T02:12:17.118Z,72.4
2018-05-09T02:13:16.411Z,72.4
2018-05-09T02:14:16.692Z,72.5
2018-05-09T02:15:16.986Z,72.5
2018-05-09T02:16:17.282Z,72.6
2018-05-09T02:17:16.594Z,72.5
2018-05-09T02:18:16.901Z,73.0
2018-05-09T02:19:17.193Z,73.2
2018-05-09T02:20:16.492Z,73.3
2018-05-09T02:21:16.522Z,73.5
2018-05-09T02:22:16.812Z,73.7
2018-05-09T02:23:17.094Z,73.8
2018-05-09T02:24:16.372Z,73.9
2018-05-09T02:25:16.737Z,74.1
2018-05-09T02:26:16.995Z,73.8
2018-05-09T02:27:17.572Z,73.6
2018-05-09T02:28:16.826Z,73.4
2018-05-09T02:29:17.111Z,73.3
2018-05-09T02:30:16.409Z,73.0
2018-05-09T02:31:16.733Z,72.8
2018-05-09T02:32:17.011Z,72.5
2018-05-09T02:33:17.306Z,71.8
2018-05-09T02:34:16.588Z,71.7
2018-05-09T02:35:16.856Z,73.1
2018-05-09T02:36:17.129Z,73.0
2018-05-09T02:37:16.406Z,73.8
2018-05-09T02:38:16.693Z,73.3
2018-05-09T02:39:16.960Z,73.3
2018-05-09T02:40:17.247Z,73.2
2018-05-09T02:41:17.274Z,73.3
2018-05-09T02:42:16.540Z,73.6
2018-05-09T02:43:16.814Z,73.4
2018-05-09T02:44:17.109Z,73.3
2018-05-09T02:45:16.413Z,73.5
2018-05-09T02:46:16.683Z,73.8
2018-05-09T02:47:16.966Z,73.7
2018-05-09T02:48:17.258Z,73.8
2018-05-09T02:49:16.554Z,74.1
2018-05-09T02:50:16.837Z,74.3
2018-05-09T02:51:16.907Z,74.5
2018-05-09T02:52:17.939Z,74.2
2018-05-09T02:53:17.238Z,74.2
2018-05-09T02:54:16.519Z,74.4
2018-05-09T02:55:16.837Z,74.8
2018-05-09T02:56:17.138Z,74.5
2018-05-09T02:57:16.729Z,74.6
2018-05-09T02:58:17.002Z,74.8
2018-05-09T02:59:17.284Z,74.8
2018-05-09T03:00:16.582Z,74.9
2018-05-09T03:01:16.623Z,75.0
2018-05-09T03:02:16.910Z,74.3
2018-05-09T03:03:17.168Z,74.4
2018-05-09T03:04:16.439Z,74.5
2018-05-09T03:05:16.739Z,74.6
2018-05-09T03:06:17.020Z,74.2
2018-05-09T03:07:17.333Z,74.0
2018-05-09T03:08:16.620Z,73.5
2018-05-09T03:09:16.914Z,73.6
2018-05-09T03:10:17.201Z,73.7
2018-05-09T03:11:17.253Z,73.8
2018-05-09T03:12:16.557Z,73.5
2018-05-09T03:13:16.846Z,73.6
2018-05-09T03:14:17.133Z,73.3
2018-05-09T03:15:16.423Z,73.6
2018-05-09T03:16:16.700Z,73.6
2018-05-09T03:17:16.975Z,73.6
2018-05-09T03:18:17.261Z,73.3
2018-05-09T03:19:16.540Z,73.2
2018-05-09T03:20:16.846Z,73.2
2018-05-09T03:21:16.861Z,73.3
2018-05-09T03:22:17.145Z,72.8
2018-05-09T03:23:16.432Z,72.9
2018-05-09T03:24:16.717Z,73.0
2018-05-09T03:25:17.009Z,71.8
2018-05-09T03:26:17.299Z,72.0
2018-05-09T03:27:16.568Z,72.2
2018-05-09T03:28:16.842Z,72.3
2018-05-09T03:29:17.124Z,72.3
2018-05-09T03:30:16.410Z,72.3
2018-05-09T03:31:16.459Z,72.3
2018-05-09T03:32:16.727Z,72.1
2018-05-09T03:33:17.005Z,71.8
2018-05-09T03:34:17.299Z,70.7
2018-05-09T03:35:16.577Z,70.2
2018-05-09T03:36:16.855Z,69.8
2018-05-09T03:37:17.560Z,69.6
2018-05-09T03:38:16.830Z,68.8
2018-05-09T03:39:17.113Z,69.2
2018-05-09T03:40:16.390Z,69.6
2018-05-09T03:41:16.431Z,70.2
2018-05-09T03:42:16.713Z,69.3
2018-05-09T03:43:16.990Z,69.5
2018-05-09T03:44:17.274Z,68.8
2018-05-09T03:45:16.564Z,68.7
2018-05-09T03:46:16.841Z,68.6
2018-05-09T03:47:17.150Z,69.7
2018-05-09T03:48:16.462Z,69.8
2018-05-09T03:49:16.762Z,69.8
2018-05-09T03:50:17.077Z,70.5
2018-05-09T03:51:17.120Z,70.7
2018-05-09T03:52:16.412Z,71.0
2018-05-09T03:53:16.852Z,71.1
2018-05-09T03:54:17.137Z,71.2
2018-05-09T03:55:16.401Z,71.8
2018-05-09T03:56:16.660Z,71.8
2018-05-09T03:57:16.942Z,71.6
2018-05-09T03:58:17.329Z,71.7
2018-05-09T03:59:16.644Z,71.5
2018-05-09T04:00:16.934Z,71.9
2018-05-09T04:01:16.977Z,71.8
2018-05-09T04:02:17.259Z,71.8
2018-05-09T04:03:16.532Z,71.5
2018-05-09T04:04:16.812Z,70.6
2018-05-09T04:05:17.094Z,70.0
2018-05-09T04:06:16.381Z,69.7
2018-05-09T04:07:16.655Z,69.6
2018-05-09T04:08:16.941Z,69.5
2018-05-09T04:09:17.237Z,69.5
2018-05-09T04:10:16.543Z,69.6
2018-05-09T04:11:16.579Z,69.5
2018-05-09T04:12:16.857Z,69.3
2018-05-09T04:13:17.327Z,69.5
2018-05-09T04:14:16.619Z,69.4
2018-05-09T04:15:16.893Z,69.4
2018-05-09T04:16:17.175Z,69.5
2018-05-09T04:17:16.458Z,69.2
2018-05-09T04:18:16.741Z,69.1
2018-05-09T04:19:17.013Z,69.0
2018-05-09T04:20:17.305Z,69.0
2018-05-09T04:21:16.355Z,69.0
2018-05-09T04:22:16.639Z,69.0
2018-05-09T04:23:16.893Z,68.9
2018-05-09T04:24:17.151Z,69.6
2018-05-09T04:25:16.448Z,69.9
2018-05-09T04:26:16.735Z,70.2
2018-05-09T04:27:17.014Z,70.4
2018-05-09T04:28:17.630Z,70.2
2018-05-09T04:29:17.030Z,70.0
2018-05-09T04:30:17.314Z,70.4
2018-05-09T04:31:16.376Z,70.5
2018-05-09T04:32:16.675Z,70.4
2018-05-09T04:33:16.945Z,70.4
2018-05-09T04:34:17.211Z,70.5
2018-05-09T04:35:16.502Z,70.7
2018-05-09T04:36:16.891Z,70.5
2018-05-09T04:37:17.194Z,70.4
2018-05-09T04:38:16.473Z,70.5
2018-05-09T04:39:16.762Z,70.5
2018-05-09T04:40:17.066Z,70.8
2018-05-09T04:41:17.084Z,70.8
2018-05-09T04:42:16.366Z,71.2
2018-05-09T04:43:16.659Z,71.2
2018-05-09T04:44:16.949Z,71.3
2018-05-09T04:45:17.233Z,71.5
2018-05-09T04:46:16.541Z,71.2
2018-05-09T04:47:16.928Z,71.1
2018-05-09T04:48:17.201Z,70.6
2018-05-09T04:49:16.649Z,71.2
2018-05-09T04:50:16.952Z,70.8
2018-05-09T04:51:16.978Z,69.9
2018-05-09T04:52:17.260Z,69.8
2018-05-09T04:53:16.529Z,69.4
2018-05-09T04:54:16.801Z,69.3
2018-05-09T04:55:17.082Z,69.2
2018-05-09T04:56:16.441Z,68.8
2018-05-09T04:57:16.732Z,68.7
2018-05-09T04:58:17.007Z,68.7
2018-05-09T04:59:17.314Z,68.5
2018-05-09T05:00:16.609Z,68.6
2018-05-09T05:01:16.640Z,68.6
2018-05-09T05:02:16.938Z,68.5
2018-05-09T05:03:17.217Z,68.7
2018-05-09T05:04:16.493Z,68.8
2018-05-09T05:05:16.769Z,68.5
2018-05-09T05:06:17.046Z,68.8
2018-05-09T05:07:16.334Z,73.7
2018-05-09T05:08:16.627Z,74.3
2018-05-09T05:09:16.906Z,73.5
2018-05-09T05:10:17.375Z,68.6
2018-05-09T05:11:17.237Z,68.8
2018-05-09T05:12:16.602Z,69.2
2018-05-09T05:13:16.883Z,68.8
2018-05-09T05:14:17.159Z,68.8
2018-05-09T05:15:16.441Z,69.1
2018-05-09T05:16:16.741Z,68.2
2018-05-09T05:17:17.017Z,67.8
2018-05-09T05:18:17.299Z,68.0
2018-05-09T05:19:16.585Z,68.8
2018-05-09T05:20:16.862Z,68.6
2018-05-09T05:21:16.916Z,68.3
2018-05-09T05:22:17.192Z,67.8
2018-05-09T05:23:16.486Z,68.0
2018-05-09T05:24:16.769Z,67.8
2018-05-09T05:25:17.058Z,68.2
2018-05-09T05:26:16.337Z,67.7
2018-05-09T05:27:16.623Z,67.8
2018-05-09T05:28:16.888Z,67.5
2018-05-09T05:29:17.152Z,67.2
2018-05-09T05:30:16.439Z,67.6
2018-05-09T05:31:16.495Z,67.2
2018-05-09T05:32:16.780Z,66.7
2018-05-09T05:33:17.073Z,66.2
2018-05-09T05:34:16.362Z,66.6
2018-05-09T05:35:16.656Z,66.8
2018-05-09T05:36:16.950Z,66.0
2018-05-09T05:37:17.237Z,65.8
2018-05-09T05:38:16.521Z,65.4
2018-05-09T05:39:16.800Z,65.0
2018-05-09T05:40:17.091Z,64.3
2018-05-09T05:41:17.161Z,64.2
2018-05-09T05:42:16.447Z,64.0
2018-05-09T05:43:16.726Z,63.3
2018-05-09T05:44:17.009Z,62.8
2018-05-09T05:45:17.676Z,62.4
2018-05-09T05:46:17.080Z,62.8
2018-05-09T05:47:16.385Z,62.9
2018-05-09T05:48:16.677Z,62.5
2018-05-09T05:49:16.948Z,62.8
2018-05-09T05:50:17.234Z,63.8
2018-05-09T05:51:17.278Z,63.2
2018-05-09T05:52:16.632Z,62.6
2018-05-09T05:53:16.917Z,63.2
2018-05-09T05:54:17.202Z,62.8
2018-05-09T05:55:16.486Z,62.8
2018-05-09T05:56:16.775Z,62.6
2018-05-09T05:57:17.058Z,62.7
2018-05-09T05:58:16.339Z,62.8
2018-05-09T05:59:16.638Z,63.5
2018-05-09T06:00:16.951Z,63.4
2018-05-09T06:01:16.993Z,63.6
2018-05-09T06:02:17.298Z,63.2
2018-05-09T06:03:16.588Z,62.5
2018-05-09T06:04:16.841Z,61.7
2018-05-09T06:05:17.116Z,61.7
2018-05-09T06:06:16.401Z,59.9
2018-05-09T06:07:16.685Z,59.9
2018-05-09T06:08:16.977Z,59.9
2018-05-09T06:09:17.252Z,59.8
2018-05-09T06:10:16.535Z,59.6
2018-05-09T06:11:16.581Z,59.4
2018-05-09T06:12:16.868Z,58.6
2018-05-09T06:13:17.166Z,59.4
2018-05-09T06:14:16.454Z,59.8
2018-05-09T06:15:16.731Z,58.9
2018-05-09T06:16:17.022Z,58.6
2018-05-09T06:17:17.430Z,58.3
2018-05-09T06:18:16.722Z,58.2
2018-05-09T06:19:17.004Z,58.1
2018-05-09T06:20:17.287Z,57.8
2018-05-09T06:21:16.342Z,58.0
2018-05-09T06:22:16.626Z,57.6
2018-05-09T06:23:16.882Z,57.0
2018-05-09T06:24:17.327Z,57.9
2018-05-09T06:25:16.606Z,56.9
2018-05-09T06:26:16.892Z,57.8
2018-05-09T06:27:17.170Z,57.9
2018-05-09T06:28:16.463Z,57.0
2018-05-09T06:29:16.740Z,56.5
2018-05-09T06:30:17.012Z,57.0
2018-05-09T06:31:17.077Z,56.8
2018-05-09T06:32:16.362Z,57.0
2018-05-09T06:33:16.651Z,57.2
2018-05-09T06:34:16.931Z,58.1
2018-05-09T06:35:17.216Z,57.3
2018-05-09T06:36:16.515Z,56.4
2018-05-09T06:37:16.800Z,56.2
2018-05-09T06:38:17.159Z,55.5
2018-05-09T06:39:16.437Z,56.4
2018-05-09T06:40:16.726Z,56.1
2018-05-09T06:41:16.789Z,56.4
2018-05-09T06:42:17.054Z,55.4
2018-05-09T06:43:16.336Z,56.6
2018-05-09T06:44:16.643Z,56.2
2018-05-09T06:45:16.927Z,54.5
2018-05-09T06:46:17.212Z,53.6
2018-05-09T06:47:16.496Z,54.3
2018-05-09T06:48:16.783Z,54.2
2018-05-09T06:49:17.072Z,53.8
2018-05-09T06:50:16.368Z,52.8
2018-05-09T06:51:16.421Z,52.0
2018-05-09T06:52:16.695Z,52.5
2018-05-09T06:53:16.972Z,52.6
2018-05-09T06:54:17.275Z,52.2
2018-05-09T06:55:16.549Z,51.6
2018-05-09T06:56:16.847Z,51.5
2018-05-09T06:57:17.137Z,52.0
2018-05-09T06:58:16.398Z,51.7
2018-05-09T06:59:16.673Z,51.0
2018-05-09T07:00:16.980Z,50.5
2018-05-09T07:01:16.988Z,49.7
2018-05-09T07:02:17.252Z,50.0
2018-05-09T07:03:16.521Z,50.5
2018-05-09T07:04:16.803Z,50.3
2018-05-09T07:05:17.072Z,51.0
2018-05-09T07:06:16.683Z,51.0
2018-05-09T07:07:16.994Z,51.0
2018-05-09T07:08:17.279Z,51.0
2018-05-09T07:09:16.572Z,50.9
2018-05-09T07:10:16.866Z,50.9
2018-05-09T07:11:16.900Z,50.3
2018-05-09T07:12:17.166Z,49.1
2018-05-09T07:13:16.425Z,49.5
2018-05-09T07:14:16.688Z,49.3
2018-05-09T07:15:16.976Z,48.4
2018-05-09T07:16:17.267Z,48.2
2018-05-09T07:17:16.554Z,49.5
2018-05-09T07:18:16.833Z,50.0
2018-05-09T07:19:17.315Z,48.9
2018-05-09T07:20:16.591Z,49.4
2018-05-09T07:21:16.644Z,48.9
2018-05-09T07:22:17.136Z,48.3
2018-05-09T07:23:16.794Z,48.3
2018-05-09T07:24:17.179Z,50.2
2018-05-09T07:25:16.465Z,49.5
2018-05-09T07:26:16.753Z,48.7
2018-05-09T07:27:17.041Z,49.4
2018-05-09T07:28:17.320Z,49.2
2018-05-09T07:29:16.606Z,48.0
2018-05-09T07:30:17.072Z,46.7
2018-05-09T07:31:16.951Z,47.3
2018-05-09T07:32:17.230Z,48.0
2018-05-09T07:33:16.517Z,47.5
2018-05-09T07:34:16.797Z,47.2
2018-05-09T07:35:17.091Z,47.4
2018-05-09T07:36:16.367Z,47.4
2018-05-09T07:37:16.653Z,46.2
2018-05-09T07:38:16.937Z,47.0
2018-05-09T07:39:17.220Z,47.0
2018-05-09T07:40:16.508Z,46.0
2018-05-09T07:41:16.584Z,46.0
2018-05-09T07:42:17.073Z,45.2
2018-05-09T07:43:16.386Z,45.4
2018-05-09T07:44:16.689Z,45.0
2018-05-09T07:45:16.988Z,44.5
2018-05-09T07:46:17.292Z,44.4
2018-05-09T07:47:16.581Z,45.0
2018-05-09T07:48:16.860Z,45.4
2018-05-09T07:49:17.136Z,46.2
2018-05-09T07:50:16.432Z,45.1
2018-05-09T07:51:16.466Z,45.2
2018-05-09T07:52:16.752Z,44.1
2018-05-09T07:53:17.036Z,45.3
2018-05-09T07:54:17.308Z,44.1
2018-05-09T07:55:16.583Z,44.1
2018-05-09T07:56:16.857Z,43.2
2018-05-09T07:57:17.141Z,43.5
2018-05-09T07:58:16.435Z,43.5
2018-05-09T07:59:16.711Z,44.8
2018-05-09T08:00:16.997Z,45.0
2018-05-09T08:01:17.045Z,42.8
2018-05-09T08:02:16.325Z,44.0
2018-05-09T08:03:16.691Z,44.5
2018-05-09T08:04:16.983Z,44.8
2018-05-09T08:05:17.264Z,44.0
2018-05-09T08:06:16.560Z,44.4
2018-05-09T08:07:16.848Z,44.0
2018-05-09T08:08:17.128Z,43.0
2018-05-09T08:09:16.413Z,42.3
2018-05-09T08:10:16.710Z,43.2
2018-05-09T08:11:16.751Z,41.4
2018-05-09T08:12:17.033Z,41.8
2018-05-09T08:13:17.322Z,42.7
2018-05-09T08:14:16.620Z,40.9
2018-05-09T08:15:16.893Z,40.3
2018-05-09T08:16:17.493Z,40.8
2018-05-09T08:17:16.758Z,41.2
2018-05-09T08:18:17.018Z,40.6
2018-05-09T08:19:17.297Z,39.9
2018-05-09T08:20:16.608Z,39.4
2018-05-09T08:21:16.653Z,38.7
2018-05-09T08:22:16.946Z,38.6
2018-05-09T08:23:17.307Z,38.0
2018-05-09T08:24:16.579Z,38.0
2018-05-09T08:25:16.880Z,37.9
2018-05-09T08:26:17.185Z,38.8
2018-05-09T08:27:16.544Z,39.0
2018-05-09T08:28:16.819Z,40.0
2018-05-09T08:29:17.096Z,40.1
2018-05-09T08:30:16.532Z,40.0
2018-05-09T08:31:16.447Z,37.8
2018-05-09T08:32:16.712Z,38.5
2018-05-09T08:33:16.988Z,39.0
2018-05-09T08:34:17.266Z,38.5
2018-05-09T08:35:16.558Z,35.7
2018-05-09T08:36:16.930Z,35.8
2018-05-09T08:37:17.224Z,35.0
2018-05-09T08:38:16.494Z,35.2
2018-05-09T08:39:16.778Z,35.0
2018-05-09T08:40:17.069Z,36.6
2018-05-09T08:41:17.113Z,35.4
2018-05-09T08:42:16.400Z,35.4
2018-05-09T08:43:16.844Z,35.3
2018-05-09T08:44:17.242Z,36.2
2018-05-09T08:45:16.533Z,34.1
2018-05-09T08:46:16.806Z,35.0
2018-05-09T08:47:17.092Z,34.8
2018-05-09T08:48:16.374Z,37.0
2018-05-09T08:49:16.831Z,37.1
2018-05-09T08:50:17.148Z,36.1
2018-05-09T08:51:17.164Z,34.1
2018-05-09T08:52:16.444Z,34.8
2018-05-09T08:53:16.722Z,34.2
2018-05-09T08:54:16.982Z,35.3
2018-05-09T08:55:17.240Z,35.6
2018-05-09T08:56:16.504Z,34.6
2018-05-09T08:57:16.777Z,35.0
2018-05-09T08:58:17.054Z,35.2
2018-05-09T08:59:16.356Z,34.3
2018-05-09T09:00:16.640Z,33.4
2018-05-09T09:01:16.692Z,33.1
2018-05-09T09:02:16.992Z,35.0
2018-05-09T09:03:17.281Z,32.0
2018-05-09T09:04:16.740Z,31.2
2018-05-09T09:05:17.048Z,33.2
2018-05-09T09:06:17.425Z,31.1
2018-05-09T09:07:16.801Z,32.0
2018-05-09T09:08:17.105Z,34.0
2018-05-09T09:09:16.411Z,35.3
2018-05-09T09:10:16.676Z,35.0
2018-05-09T09:11:16.480Z,32.5
2018-05-09T09:12:16.775Z,31.1
2018-05-09T09:13:17.080Z,30.6
2018-05-09T09:14:16.362Z,31.0
2018-05-09T09:15:16.848Z,30.8
2018-05-09T09:16:17.147Z,31.4
2018-05-09T09:17:16.423Z,33.1
2018-05-09T09:18:16.701Z,33.5
2018-05-09T09:19:16.990Z,33.5
2018-05-09T09:20:17.274Z,32.2
2018-05-09T09:21:17.339Z,32.0
2018-05-09T09:22:16.624Z,32.5
2018-05-09T09:23:16.916Z,31.5
2018-05-09T09:24:17.191Z,31.3
2018-05-09T09:25:16.456Z,32.4
2018-05-09T09:26:16.745Z,34.0
2018-05-09T09:27:17.050Z,33.9
2018-05-09T09:28:16.347Z,34.3
2018-05-09T09:29:16.762Z,34.2
2018-05-09T09:30:17.066Z,32.6
2018-05-09T09:31:17.109Z,31.4
2018-05-09T09:32:16.389Z,31.6
2018-05-09T09:33:16.678Z,32.3
2018-05-09T09:34:16.974Z,30.4
2018-05-09T09:35:17.264Z,29.6
2018-05-09T09:36:16.540Z,30.4
2018-05-09T09:37:16.838Z,31.0
2018-05-09T09:38:17.115Z,32.5
2018-05-09T09:39:16.384Z,32.0
2018-05-09T09:40:16.686Z,32.1
2018-05-09T09:41:16.769Z,31.9
2018-05-09T09:42:17.079Z,31.2
2018-05-09T09:43:16.365Z,31.1
2018-05-09T09:44:16.651Z,32.2
2018-05-09T09:45:16.933Z,33.0
2018-05-09T09:46:17.207Z,31.4
2018-05-09T09:47:16.486Z,31.6
2018-05-09T09:48:16.846Z,30.6
2018-05-09T09:49:17.134Z,28.6
2018-05-09T09:50:16.429Z,30.1
2018-05-09T09:51:16.459Z,28.9
2018-05-09T09:52:16.735Z,32.5
2018-05-09T09:53:17.016Z,30.5
2018-05-09T09:54:17.552Z,31.6
2018-05-09T09:55:16.821Z,30.0
2018-05-09T09:56:17.104Z,29.0
2018-05-09T09:57:16.495Z,27.5
2018-05-09T09:58:16.770Z,27.8
2018-05-09T09:59:17.059Z,27.6
2018-05-09T10:00:16.326Z,30.2
2018-05-09T10:01:16.377Z,28.4
2018-05-09T10:02:16.681Z,29.0
2018-05-09T10:03:16.956Z,29.4
2018-05-09T10:04:17.239Z,30.1
2018-05-09T10:05:16.541Z,30.4
2018-05-09T10:06:16.816Z,30.5
2018-05-09T10:07:17.106Z,31.6
2018-05-09T10:08:16.376Z,31.1
2018-05-09T10:09:16.670Z,32.1
2018-05-09T10:10:16.955Z,30.1
2018-05-09T10:11:16.988Z,31.9
2018-05-09T10:12:17.289Z,29.7
2018-05-09T10:13:16.588Z,29.7
2018-05-09T10:14:16.884Z,30.4
2018-05-09T10:15:17.175Z,30.2
2018-05-09T10:16:16.662Z,29.6
2018-05-09T10:17:16.962Z,29.6
2018-05-09T10:18:17.252Z,29.7
2018-05-09T10:19:16.537Z,30.4
2018-05-09T10:20:16.839Z,31.0
2018-05-09T10:21:16.867Z,31.8
2018-05-09T10:22:17.148Z,31.5
2018-05-09T10:23:16.566Z,30.9
2018-05-09T10:24:16.868Z,29.4
2018-05-09T10:25:17.155Z,29.9
2018-05-09T10:26:16.438Z,30.4
2018-05-09T10:27:16.722Z,32.5
2018-05-09T10:28:17.006Z,31.9
2018-05-09T10:29:17.288Z,32.8
2018-05-09T10:30:16.585Z,32.8
2018-05-09T10:31:16.734Z,32.3
2018-05-09T10:32:17.022Z,32.2
2018-05-09T10:33:17.422Z,30.9
2018-05-09T10:34:16.709Z,30.4
2018-05-09T10:35:17.010Z,29.8
2018-05-09T10:36:17.287Z,29.3
2018-05-09T10:37:16.565Z,29.6
2018-05-09T10:38:16.832Z,29.8
2018-05-09T10:39:17.126Z,29.6
2018-05-09T10:40:16.434Z,30.3
2018-05-09T10:41:16.470Z,30.7
2018-05-09T10:42:16.752Z,31.9
2018-05-09T10:43:17.034Z,32.5
2018-05-09T10:44:17.318Z,32.8
2018-05-09T10:45:16.625Z,32.2
2018-05-09T10:46:16.919Z,32.9
2018-05-09T10:47:17.216Z,33.5
2018-05-09T10:48:16.503Z,33.3
2018-05-09T10:49:16.793Z,32.6
2018-05-09T10:50:17.084Z,31.5
2018-05-09T10:51:17.120Z,31.2
2018-05-09T10:52:16.407Z,29.9
2018-05-09T10:53:16.677Z,30.3
2018-05-09T10:54:16.944Z,31.2
2018-05-09T10:55:17.219Z,30.5
2018-05-09T10:56:16.507Z,29.5
2018-05-09T10:57:16.862Z,29.4
2018-05-09T10:58:17.145Z,29.0
2018-05-09T10:59:16.402Z,28.6
2018-05-09T11:00:16.702Z,28.4
2018-05-09T11:01:16.744Z,28.8
2018-05-09T11:02:17.019Z,28.8
2018-05-09T11:03:17.307Z,29.1
2018-05-09T11:04:16.593Z,28.9
2018-05-09T11:05:16.872Z,29.3
2018-05-09T11:06:17.173Z,30.6
2018-05-09T11:07:16.476Z,29.6
2018-05-09T11:08:16.775Z,30.4
2018-05-09T11:09:17.063Z,30.1
2018-05-09T11:10:16.346Z,30.6
2018-05-09T11:11:16.400Z,29.6
2018-05-09T11:12:16.679Z,29.0
2018-05-09T11:13:16.958Z,28.2
2018-05-09T11:14:17.517Z,28.7
2018-05-09T11:15:16.807Z,28.0
2018-05-09T11:16:17.085Z,28.9
2018-05-09T11:17:16.367Z,30.5
2018-05-09T11:18:16.662Z,30.6
2018-05-09T11:19:16.967Z,31.4
2018-05-09T11:20:17.263Z,30.5
2018-05-09T11:21:17.292Z,30.9
2018-05-09T11:22:16.583Z,31.5
2018-05-09T11:23:16.863Z,30.4
2018-05-09T11:24:17.266Z,30.9
2018-05-09T11:25:16.538Z,30.8
2018-05-09T11:26:16.819Z,29.4
2018-05-09T11:27:17.104Z,30.0
2018-05-09T11:28:16.385Z,28.5
2018-05-09T11:29:16.680Z,28.4
2018-05-09T11:30:16.964Z,28.1
2018-05-09T11:31:17.044Z,27.5
2018-05-09T11:32:16.328Z,27.1
2018-05-09T11:33:16.615Z,26.6
2018-05-09T11:34:16.909Z,27.6
2018-05-09T11:35:17.179Z,28.0
2018-05-09T11:36:16.460Z,28.8
2018-05-09T11:37:16.894Z,28.6
2018-05-09T11:38:17.177Z,28.6
2018-05-09T11:39:16.533Z,30.1
2018-05-09T11:40:16.827Z,28.9
2018-05-09T11:41:16.908Z,29.4
2018-05-09T11:42:17.193Z,28.8
2018-05-09T11:43:16.482Z,29.8
2018-05-09T11:44:16.756Z,30.7
2018-05-09T11:45:17.060Z,29.1
2018-05-09T11:46:16.342Z,29.4
2018-05-09T11:47:16.622Z,30.2
2018-05-09T11:48:16.915Z,30.6
2018-05-09T11:49:17.213Z,30.5
2018-05-09T11:50:16.511Z,29.8
2018-05-09T11:51:16.532Z,30.6
2018-05-09T11:52:16.820Z,30.8
2018-05-09T11:53:17.611Z,30.8
2018-05-09T11:54:17.018Z,30.9
2018-05-09T11:55:17.289Z,30.6
2018-05-09T11:56:16.569Z,30.5
2018-05-09T11:57:16.852Z,30.7
2018-05-09T11:58:17.143Z,30.6
2018-05-09T11:59:16.430Z,30.8
2018-05-09T12:00:16.761Z,30.5
2018-05-09T12:01:16.746Z,30.4
2018-05-09T12:02:17.141Z,30.7
2018-05-09T12:03:16.423Z,31.0
2018-05-09T12:04:16.697Z,31.2
2018-05-09T12:05:16.986Z,31.6
2018-05-09T12:06:17.279Z,31.8
2018-05-09T12:07:16.578Z,31.5
2018-05-09T12:08:16.847Z,32.5
2018-05-09T12:09:17.161Z,32.4
2018-05-09T12:10:16.565Z,32.4
2018-05-09T12:11:16.500Z,32.5
2018-05-09T12:12:16.788Z,32.6
2018-05-09T12:13:17.097Z,33.0
2018-05-09T12:14:16.371Z,33.4
2018-05-09T12:15:16.649Z,33.2
2018-05-09T12:16:17.200Z,33.2
2018-05-09T12:17:16.477Z,32.9
2018-05-09T12:18:16.756Z,32.9
2018-05-09T12:19:17.039Z,33.4
2018-05-09T12:20:17.335Z,32.8
2018-05-09T12:21:16.367Z,32.1
2018-05-09T12:22:16.663Z,33.4
2018-05-09T12:23:16.943Z,31.8
2018-05-09T12:24:17.232Z,32.5
2018-05-09T12:25:16.509Z,32.2
2018-05-09T12:26:16.810Z,31.9
2018-05-09T12:27:17.096Z,31.8
2018-05-09T12:28:16.378Z,31.0
2018-05-09T12:29:16.665Z,31.0
2018-05-09T12:30:16.974Z,30.8
2018-05-09T12:31:17.011Z,31.4
2018-05-09T12:32:17.307Z,31.6
2018-05-09T12:33:16.579Z,31.7
2018-05-09T12:34:16.855Z,32.0
2018-05-09T12:35:17.141Z,31.2
2018-05-09T12:36:16.442Z,30.8
2018-05-09T12:37:16.737Z,30.6
2018-05-09T12:38:17.072Z,31.5
2018-05-09T12:39:16.346Z,30.9
2018-05-09T12:40:16.625Z,32.0
2018-05-09T12:41:16.653Z,33.5
2018-05-09T12:42:16.933Z,31.1
2018-05-09T12:43:17.211Z,32.0
2018-05-09T12:44:16.490Z,31.6
2018-05-09T12:45:16.777Z,32.1
2018-05-09T12:46:17.066Z,32.5
2018-05-09T12:47:16.348Z,32.4
2018-05-09T12:48:16.669Z,31.2
2018-05-09T12:49:16.949Z,31.7
2018-05-09T12:50:17.239Z,31.7
2018-05-09T12:51:17.305Z,32.8
2018-05-09T12:52:16.587Z,32.2
2018-05-09T12:53:16.870Z,32.5
2018-05-09T12:54:17.143Z,32.4
2018-05-09T12:55:16.417Z,32.4
2018-05-09T12:56:16.704Z,31.9
2018-05-09T12:57:16.995Z,32.9
2018-05-09T12:58:17.277Z,32.9
2018-05-09T12:59:16.560Z,33.5
2018-05-09T13:00:16.898Z,33.1
2018-05-09T13:01:16.891Z,33.5
2018-05-09T13:02:17.190Z,33.5
2018-05-09T13:03:16.457Z,33.5
2018-05-09T13:04:16.745Z,32.6
2018-05-09T13:05:17.043Z,32.4
2018-05-09T13:06:16.337Z,32.8
2018-05-09T13:07:16.793Z,33.0
2018-05-09T13:08:17.067Z,31.9
2018-05-09T13:09:16.341Z,32.4
2018-05-09T13:10:16.649Z,32.6
2018-05-09T13:11:16.673Z,32.7
2018-05-09T13:12:16.962Z,32.8
2018-05-09T13:13:17.450Z,32.9
2018-05-09T13:14:16.773Z,31.4
2018-05-09T13:15:17.058Z,31.5
2018-05-09T13:16:16.331Z,31.5
2018-05-09T13:17:16.626Z,31.6
2018-05-09T13:18:16.915Z,32.3